Local Weather Ingen bokad jour idag Wednesday 15th of July
Flygplats METAR TAF
Airport METAR TAF
ESSL - Linköping142320Z AUTO 15003KT 9999 SCT051/// 14/12 Q1012= NO VALID TAF PUBLISHED
ESSP - Norrköping142320Z AUTO 10003KT 9999 OVC051/// 14/12 Q1012= NO VALID TAF PUBLISHED
ESGJ - Jönköping142320Z 14004KT 9999 SCT031 BKN046 13/13 Q1011= 142030Z 1421/1501 16004KT 9999 -RA FEW020 BKN045 PROB40 1421/1501 3000 BR=
ESKN - Skavsta142320Z 00000KT 9999 FEW040 15/13 Q1012= 142330Z 1500/1524 15005KT 9999 SCT040 PROB40 1506/1510 RA=
ESSV - Visby142320Z AUTO 16007KT 9999 NCD 11/11 Q1013= 141730Z 1418/1422 20008KT CAVOK=
ESGG - Göteborg142320Z 14006KT 9999 FEW009 BKN012 BKN026 13/12 Q1010= 142330Z 1500/1524 16006KT 9999 SCT010 BKN015 PROB40 1500/1510 1200 SHRA BR BKN004 BKN020CB PROB40 1512/1521 SHRA SCT040CB=
FLEET STATUS
Flygplan Tid till service Tid till flygstopp Flygtid Landningar
Aircraft Time to service Time to stop Total time Landings
SE-IUD-6.6 h3.4 h12 006.6 h24 353 st.
SE-KIT-4.2 h0.8 h12 154.2 h23 658 st.
SE-KMH14.0 h19.0 h16 236.0 h60 773 st.
SE-LRL-5.0 h5.0 h955.0 h1 825 st.
SE-MEB16.8 h26.8 h1 583.2 h4 863 st.
SE-MEKN/AN/A3 615.0 h3 362 st.
SE-SIMN/AN/A1 241.1 h224 st.
PPR
Ankomst Avgång Flygplan Namn Bränsle
Arrival Departure Aircraft Name Fuel
NOTAM
>>> ESSL/LINKOPING/SAAB <<<
+ RWY 11/29 CLSD DUE WIP. FROM: 13 JUL 2020 00:00 TO: 26 JUL 2020 23:59 ES/B2189/20 - AERODROME CONTROL TOWER (TWR) HOURS OF SERVICE ARE NOW MON-SUN CLSD. FROM: 06 JUL 2020 00:00 TO: 02 AUG 2020 23:59 ES/B2366/20 - OSTGOTA APPROACH CONTROL SERVICE (APP) HOURS OF SERVICE CHANGE TO MON-SUN 0430-2100. SERVICE PROVIDED ACCORDING TO ES AIP ENR 2.1 FROM: 01 JUN 2020 00:00 TO: 23 AUG 2020 23:59 ES/B1809/20
>>> ESCF/LINKOPING/MALMEN <<<